sensor_id;sensor_type;location;lat;lon;timestamp;temperature;humidity
14188;DHT22;7175;51.978;5.330;2023-04-01T00:01:10;10.40;99.90
14188;DHT22;7175;51.978;5.330;2023-04-01T00:03:40;10.40;99.90
14188;DHT22;7175;51.978;5.330;2023-04-01T00:06:11;10.40;99.90
14188;DHT22;7175;51.978;5.330;2023-04-01T00:08:40;10.40;99.90
14188;DHT22;7175;51.978;5.330;2023-04-01T00:11:09;10.40;99.90
14188;DHT22;7175;51.978;5.330;2023-04-01T00:13:39;10.40;99.90
14188;DHT22;7175;51.978;5.330;2023-04-01T00:16:07;10.50;99.90
14188;DHT22;7175;51.978;5.330;2023-04-01T00:18:49;10.50;99.90
14188;DHT22;7175;51.978;5.330;2023-04-01T00:21:19;10.50;99.90
14188;DHT22;7175;51.978;5.330;2023-04-01T00:23:47;10.40;99.90
14188;DHT22;7175;51.978;5.330;2023-04-01T00:30:07;10.40;99.90
14188;DHT22;7175;51.978;5.330;2023-04-01T00:32:36;10.40;99.90
14188;DHT22;7175;51.978;5.330;2023-04-01T00:35:05;10.30;99.90
14188;DHT22;7175;51.978;5.330;2023-04-01T00:37:34;10.30;99.90
14188;DHT22;7175;51.978;5.330;2023-04-01T00:40:05;10.30;99.90
14188;DHT22;7175;51.978;5.330;2023-04-01T00:42:33;10.40;99.90
14188;DHT22;7175;51.978;5.330;2023-04-01T00:45:25;10.30;99.90
14188;DHT22;7175;51.978;5.330;2023-04-01T00:47:55;10.40;99.90
14188;DHT22;7175;51.978;5.330;2023-04-01T00:50:24;10.40;99.90
14188;DHT22;7175;51.978;5.330;2023-04-01T00:52:54;10.40;99.90
14188;DHT22;7175;51.978;5.330;2023-04-01T00:55:23;10.40;99.90
14188;DHT22;7175;51.978;5.330;2023-04-01T00:57:53;10.40;99.90
14188;DHT22;7175;51.978;5.330;2023-04-01T01:00:25;10.40;99.90
14188;DHT22;7175;51.978;5.330;2023-04-01T01:02:54;10.30;99.90
14188;DHT22;7175;51.978;5.330;2023-04-01T01:05:29;10.30;99.90
14188;DHT22;7175;51.978;5.330;2023-04-01T01:08:20;10.30;99.90
14188;DHT22;7175;51.978;5.330;2023-04-01T01:10:52;10.30;99.90
14188;DHT22;7175;51.978;5.330;2023-04-01T01:13:25;10.30;99.90
14188;DHT22;7175;51.978;5.330;2023-04-01T01:15:59;10.30;99.90
14188;DHT22;7175;51.978;5.330;2023-04-01T01:18:35;10.20;99.90
14188;DHT22;7175;51.978;5.330;2023-04-01T01:21:27;10.30;99.90
14188;DHT22;7175;51.978;5.330;2023-04-01T01:24:17;10.20;99.90
14188;DHT22;7175;51.978;5.330;2023-04-01T01:27:04;10.20;99.90
14188;DHT22;7175;51.978;5.330;2023-04-01T01:30:12;10.10;99.90
14188;DHT22;7175;51.978;5.330;2023-04-01T01:35:40;10.10;99.90
14188;DHT22;7175;51.978;5.330;2023-04-01T01:38:17;10.20;99.90
14188;DHT22;7175;51.978;5.330;2023-04-01T01:40:49;10.10;99.90
14188;DHT22;7175;51.978;5.330;2023-04-01T01:43:23;10.10;99.90
14188;DHT22;7175;51.978;5.330;2023-04-01T01:45:56;10.10;99.90
14188;DHT22;7175;51.978;5.330;2023-04-01T01:48:27;10.10;99.90
14188;DHT22;7175;51.978;5.330;2023-04-01T01:50:59;10.10;99.90
14188;DHT22;7175;51.978;5.330;2023-04-01T01:53:28;10.10;99.90
14188;DHT22;7175;51.978;5.330;2023-04-01T01:55:56;10.10;99.90
14188;DHT22;7175;51.978;5.330;2023-04-01T01:58:28;10.00;99.90
14188;DHT22;7175;51.978;5.330;2023-04-01T02:00:59;10.10;99.90
14188;DHT22;7175;51.978;5.330;2023-04-01T02:03:31;10.00;99.90
14188;DHT22;7175;51.978;5.330;2023-04-01T02:06:05;10.00;99.90
14188;DHT22;7175;51.978;5.330;2023-04-01T02:08:36;10.00;99.90
14188;DHT22;7175;51.978;5.330;2023-04-01T02:11:06;10.00;99.90
14188;DHT22;7175;51.978;5.330;2023-04-01T02:13:39;10.00;99.90
14188;DHT22;7175;51.978;5.330;2023-04-01T02:16:12;10.00;99.90
14188;DHT22;7175;51.978;5.330;2023-04-01T02:18:43;9.90;99.90
14188;DHT22;7175;51.978;5.330;2023-04-01T02:21:15;10.00;99.90
14188;DHT22;7175;51.978;5.330;2023-04-01T02:23:45;9.90;99.90
14188;DHT22;7175;51.978;5.330;2023-04-01T02:26:15;9.90;99.90
14188;DHT22;7175;51.978;5.330;2023-04-01T02:28:45;9.90;99.90
14188;DHT22;7175;51.978;5.330;2023-04-01T02:31:14;9.90;99.90
14188;DHT22;7175;51.978;5.330;2023-04-01T02:33:43;9.90;99.90
14188;DHT22;7175;51.978;5.330;2023-04-01T02:36:15;9.90;99.90
14188;DHT22;7175;51.978;5.330;2023-04-01T02:38:45;9.90;99.90
14188;DHT22;7175;51.978;5.330;2023-04-01T02:41:14;9.90;99.90
14188;DHT22;7175;51.978;5.330;2023-04-01T02:43:43;9.90;99.90
14188;DHT22;7175;51.978;5.330;2023-04-01T02:46:11;9.90;99.90
14188;DHT22;7175;51.978;5.330;2023-04-01T02:48:40;9.90;99.90
14188;DHT22;7175;51.978;5.330;2023-04-01T02:51:08;9.90;99.90
14188;DHT22;7175;51.978;5.330;2023-04-01T02:53:38;9.90;99.90
14188;DHT22;7175;51.978;5.330;2023-04-01T02:56:07;9.90;99.90
14188;DHT22;7175;51.978;5.330;2023-04-01T02:58:35;9.90;99.90
14188;DHT22;7175;51.978;5.330;2023-04-01T03:01:04;9.90;99.90
14188;DHT22;7175;51.978;5.330;2023-04-01T03:03:32;9.90;99.90
14188;DHT22;7175;51.978;5.330;2023-04-01T03:06:05;9.90;99.90
14188;DHT22;7175;51.978;5.330;2023-04-01T03:08:34;9.90;99.90
14188;DHT22;7175;51.978;5.330;2023-04-01T03:11:04;9.90;99.90
14188;DHT22;7175;51.978;5.330;2023-04-01T03:13:33;9.90;99.90
14188;DHT22;7175;51.978;5.330;2023-04-01T03:16:01;9.90;99.90
14188;DHT22;7175;51.978;5.330;2023-04-01T03:18:30;9.90;99.90
14188;DHT22;7175;51.978;5.330;2023-04-01T03:21:12;9.90;99.90
14188;DHT22;7175;51.978;5.330;2023-04-01T03:23:41;9.80;99.90
14188;DHT22;7175;51.978;5.330;2023-04-01T03:26:11;9.80;99.90
14188;DHT22;7175;51.978;5.330;2023-04-01T03:28:40;9.80;99.90
14188;DHT22;7175;51.978;5.330;2023-04-01T03:31:09;9.80;99.90
14188;DHT22;7175;51.978;5.330;2023-04-01T03:33:38;9.80;99.90
14188;DHT22;7175;51.978;5.330;2023-04-01T03:36:06;9.80;99.90
14188;DHT22;7175;51.978;5.330;2023-04-01T03:38:35;9.80;99.90
14188;DHT22;7175;51.978;5.330;2023-04-01T03:41:04;9.80;99.90
14188;DHT22;7175;51.978;5.330;2023-04-01T03:43:34;9.80;99.90
14188;DHT22;7175;51.978;5.330;2023-04-01T03:46:03;9.80;99.90
14188;DHT22;7175;51.978;5.330;2023-04-01T03:48:31;9.80;99.90
14188;DHT22;7175;51.978;5.330;2023-04-01T03:51:00;9.80;99.90
14188;DHT22;7175;51.978;5.330;2023-04-01T03:53:28;9.90;99.90
14188;DHT22;7175;51.978;5.330;2023-04-01T03:55:57;9.90;99.90
14188;DHT22;7175;51.978;5.330;2023-04-01T03:58:25;9.80;99.90
14188;DHT22;7175;51.978;5.330;2023-04-01T04:00:55;9.90;99.90
14188;DHT22;7175;51.978;5.330;2023-04-01T04:03:24;9.90;99.90
14188;DHT22;7175;51.978;5.330;2023-04-01T04:05:53;9.90;99.90
14188;DHT22;7175;51.978;5.330;2023-04-01T04:08:22;9.90;99.90
14188;DHT22;7175;51.978;5.330;2023-04-01T04:10:55;9.90;99.90
14188;DHT22;7175;51.978;5.330;2023-04-01T04:13:23;9.90;99.90
14188;DHT22;7175;51.978;5.330;2023-04-01T04:15:52;9.90;99.90
14188;DHT22;7175;51.978;5.330;2023-04-01T04:18:22;9.90;99.90
14188;DHT22;7175;51.978;5.330;2023-04-01T04:20:50;9.90;99.90
14188;DHT22;7175;51.978;5.330;2023-04-01T04:23:19;9.90;99.90
14188;DHT22;7175;51.978;5.330;2023-04-01T04:25:56;9.90;99.90
14188;DHT22;7175;51.978;5.330;2023-04-01T04:28:25;9.90;99.90
14188;DHT22;7175;51.978;5.330;2023-04-01T04:30:55;10.00;99.90
14188;DHT22;7175;51.978;5.330;2023-04-01T04:33:25;10.00;99.90
14188;DHT22;7175;51.978;5.330;2023-04-01T04:35:56;10.00;99.90
14188;DHT22;7175;51.978;5.330;2023-04-01T04:38:25;10.00;99.90
14188;DHT22;7175;51.978;5.330;2023-04-01T04:40:54;10.00;99.90
14188;DHT22;7175;51.978;5.330;2023-04-01T04:43:23;10.10;99.90
14188;DHT22;7175;51.978;5.330;2023-04-01T04:45:52;10.10;99.90
14188;DHT22;7175;51.978;5.330;2023-04-01T04:48:21;10.10;99.90
14188;DHT22;7175;51.978;5.330;2023-04-01T04:50:51;10.10;99.90
14188;DHT22;7175;51.978;5.330;2023-04-01T04:53:19;10.10;99.90
14188;DHT22;7175;51.978;5.330;2023-04-01T04:55:49;10.20;99.90
14188;DHT22;7175;51.978;5.330;2023-04-01T04:58:18;10.20;99.90
14188;DHT22;7175;51.978;5.330;2023-04-01T05:00:47;10.20;99.90
14188;DHT22;7175;51.978;5.330;2023-04-01T05:03:15;10.20;99.90
14188;DHT22;7175;51.978;5.330;2023-04-01T05:05:50;10.20;99.90
14188;DHT22;7175;51.978;5.330;2023-04-01T05:08:19;10.20;99.90
14188;DHT22;7175;51.978;5.330;2023-04-01T05:10:48;10.20;99.90
14188;DHT22;7175;51.978;5.330;2023-04-01T05:13:16;10.20;99.90
14188;DHT22;7175;51.978;5.330;2023-04-01T05:15:45;10.20;99.90
14188;DHT22;7175;51.978;5.330;2023-04-01T05:18:13;10.20;99.90
14188;DHT22;7175;51.978;5.330;2023-04-01T05:20:47;10.20;99.90
14188;DHT22;7175;51.978;5.330;2023-04-01T05:23:17;10.20;99.90
14188;DHT22;7175;51.978;5.330;2023-04-01T05:25:48;10.20;99.90
14188;DHT22;7175;51.978;5.330;2023-04-01T05:28:18;10.20;99.90
14188;DHT22;7175;51.978;5.330;2023-04-01T05:30:47;10.20;99.90
14188;DHT22;7175;51.978;5.330;2023-04-01T05:33:15;10.30;99.90
14188;DHT22;7175;51.978;5.330;2023-04-01T05:35:44;10.30;99.90
14188;DHT22;7175;51.978;5.330;2023-04-01T05:38:13;10.30;99.90
14188;DHT22;7175;51.978;5.330;2023-04-01T05:40:43;10.30;99.90
14188;DHT22;7175;51.978;5.330;2023-04-01T05:43:11;10.30;99.90
14188;DHT22;7175;51.978;5.330;2023-04-01T05:45:40;10.30;99.90
14188;DHT22;7175;51.978;5.330;2023-04-01T05:48:08;10.30;99.90
14188;DHT22;7175;51.978;5.330;2023-04-01T05:50:39;10.30;99.90
14188;DHT22;7175;51.978;5.330;2023-04-01T05:53:08;10.30;99.90
14188;DHT22;7175;51.978;5.330;2023-04-01T05:55:37;10.30;99.90
14188;DHT22;7175;51.978;5.330;2023-04-01T05:58:06;10.30;99.90
14188;DHT22;7175;51.978;5.330;2023-04-01T06:00:35;10.40;99.90
14188;DHT22;7175;51.978;5.330;2023-04-01T06:03:03;10.40;99.90
14188;DHT22;7175;51.978;5.330;2023-04-01T06:05:39;10.40;99.90
14188;DHT22;7175;51.978;5.330;2023-04-01T06:08:11;10.40;99.90
14188;DHT22;7175;51.978;5.330;2023-04-01T06:10:53;10.40;99.90
14188;DHT22;7175;51.978;5.330;2023-04-01T06:13:34;10.40;99.90
14188;DHT22;7175;51.978;5.330;2023-04-01T06:16:13;10.40;99.90
14188;DHT22;7175;51.978;5.330;2023-04-01T06:18:55;10.40;99.90
14188;DHT22;7175;51.978;5.330;2023-04-01T06:22:02;10.50;99.90
14188;DHT22;7175;51.978;5.330;2023-04-01T06:24:46;10.40;99.90
14188;DHT22;7175;51.978;5.330;2023-04-01T06:27:26;10.50;99.90
14188;DHT22;7175;51.978;5.330;2023-04-01T06:30:17;10.40;99.90
14188;DHT22;7175;51.978;5.330;2023-04-01T06:33:05;10.40;99.90
14188;DHT22;7175;51.978;5.330;2023-04-01T06:35:53;10.50;99.90
14188;DHT22;7175;51.978;5.330;2023-04-01T06:38:55;10.40;99.90
14188;DHT22;7175;51.978;5.330;2023-04-01T06:42:00;10.50;99.90
14188;DHT22;7175;51.978;5.330;2023-04-01T06:44:38;10.50;99.90
14188;DHT22;7175;51.978;5.330;2023-04-01T06:47:22;10.50;99.90
14188;DHT22;7175;51.978;5.330;2023-04-01T06:49:57;10.50;99.90
14188;DHT22;7175;51.978;5.330;2023-04-01T06:52:37;10.50;99.90
14188;DHT22;7175;51.978;5.330;2023-04-01T06:55:23;10.50;99.90
14188;DHT22;7175;51.978;5.330;2023-04-01T06:57:56;10.50;99.90
14188;DHT22;7175;51.978;5.330;2023-04-01T07:00:30;10.50;99.90
14188;DHT22;7175;51.978;5.330;2023-04-01T07:03:14;10.50;99.90
14188;DHT22;7175;51.978;5.330;2023-04-01T07:05:45;10.50;99.90
14188;DHT22;7175;51.978;5.330;2023-04-01T07:08:18;10.50;99.90
14188;DHT22;7175;51.978;5.330;2023-04-01T07:10:51;10.50;99.90
14188;DHT22;7175;51.978;5.330;2023-04-01T07:13:26;10.50;99.90
14188;DHT22;7175;51.978;5.330;2023-04-01T07:16:01;10.50;99.90
14188;DHT22;7175;51.978;5.330;2023-04-01T07:18:38;10.50;99.90
14188;DHT22;7175;51.978;5.330;2023-04-01T07:21:16;10.50;99.90
14188;DHT22;7175;51.978;5.330;2023-04-01T07:23:47;10.60;99.90
14188;DHT22;7175;51.978;5.330;2023-04-01T07:26:21;10.60;99.90
14188;DHT22;7175;51.978;5.330;2023-04-01T07:28:51;10.60;99.90
14188;DHT22;7175;51.978;5.330;2023-04-01T07:31:30;10.70;99.90
14188;DHT22;7175;51.978;5.330;2023-04-01T07:34:07;10.70;99.90
14188;DHT22;7175;51.978;5.330;2023-04-01T07:36:41;10.70;99.90
14188;DHT22;7175;51.978;5.330;2023-04-01T07:39:21;10.60;99.90
14188;DHT22;7175;51.978;5.330;2023-04-01T07:41:56;10.60;99.90
14188;DHT22;7175;51.978;5.330;2023-04-01T07:44:33;10.70;99.90
14188;DHT22;7175;51.978;5.330;2023-04-01T07:47:16;10.60;99.90
14188;DHT22;7175;51.978;5.330;2023-04-01T07:50:02;10.70;99.90
14188;DHT22;7175;51.978;5.330;2023-04-01T07:52:37;10.70;99.90
14188;DHT22;7175;51.978;5.330;2023-04-01T07:55:14;10.70;99.90
14188;DHT22;7175;51.978;5.330;2023-04-01T07:57:49;10.80;99.90
14188;DHT22;7175;51.978;5.330;2023-04-01T08:00:23;10.80;99.90
14188;DHT22;7175;51.978;5.330;2023-04-01T08:03:08;10.80;99.90
14188;DHT22;7175;51.978;5.330;2023-04-01T08:05:49;10.80;99.90
14188;DHT22;7175;51.978;5.330;2023-04-01T08:08:27;10.90;99.90
14188;DHT22;7175;51.978;5.330;2023-04-01T08:11:04;10.90;99.90
14188;DHT22;7175;51.978;5.330;2023-04-01T08:13:42;10.90;99.90
14188;DHT22;7175;51.978;5.330;2023-04-01T08:16:18;10.90;99.90
14188;DHT22;7175;51.978;5.330;2023-04-01T08:18:57;10.90;99.90
14188;DHT22;7175;51.978;5.330;2023-04-01T08:21:32;11.00;99.90
14188;DHT22;7175;51.978;5.330;2023-04-01T08:24:11;11.00;99.90
14188;DHT22;7175;51.978;5.330;2023-04-01T08:26:45;11.00;99.90
14188;DHT22;7175;51.978;5.330;2023-04-01T08:29:18;11.00;99.90
14188;DHT22;7175;51.978;5.330;2023-04-01T08:31:51;11.00;99.90
14188;DHT22;7175;51.978;5.330;2023-04-01T08:34:26;11.10;99.90
14188;DHT22;7175;51.978;5.330;2023-04-01T08:37:01;11.10;99.90
14188;DHT22;7175;51.978;5.330;2023-04-01T08:39:34;11.20;99.90
14188;DHT22;7175;51.978;5.330;2023-04-01T08:42:28;11.20;99.90
14188;DHT22;7175;51.978;5.330;2023-04-01T08:45:38;11.20;99.90
14188;DHT22;7175;51.978;5.330;2023-04-01T08:51:46;11.40;99.90
14188;DHT22;7175;51.978;5.330;2023-04-01T08:54:31;11.50;99.90
14188;DHT22;7175;51.978;5.330;2023-04-01T08:57:10;11.70;99.90
14188;DHT22;7175;51.978;5.330;2023-04-01T08:59:53;11.70;99.90
14188;DHT22;7175;51.978;5.330;2023-04-01T09:08:51;11.50;99.90
14188;DHT22;7175;51.978;5.330;2023-04-01T09:11:30;11.50;99.90
14188;DHT22;7175;51.978;5.330;2023-04-01T09:14:27;11.50;99.90
14188;DHT22;7175;51.978;5.330;2023-04-01T09:17:25;11.50;99.90
14188;DHT22;7175;51.978;5.330;2023-04-01T09:20:17;11.50;99.90
14188;DHT22;7175;51.978;5.330;2023-04-01T09:23:02;11.50;99.90
14188;DHT22;7175;51.978;5.330;2023-04-01T09:25:45;11.60;99.90
14188;DHT22;7175;51.978;5.330;2023-04-01T09:28:28;11.60;99.90
14188;DHT22;7175;51.978;5.330;2023-04-01T09:31:21;11.60;99.90
14188;DHT22;7175;51.978;5.330;2023-04-01T09:34:18;11.60;99.90
14188;DHT22;7175;51.978;5.330;2023-04-01T09:37:02;11.60;99.90
14188;DHT22;7175;51.978;5.330;2023-04-01T09:39:37;11.60;99.90
14188;DHT22;7175;51.978;5.330;2023-04-01T09:42:15;11.60;99.90
14188;DHT22;7175;51.978;5.330;2023-04-01T09:44:57;11.70;99.90
14188;DHT22;7175;51.978;5.330;2023-04-01T09:47:48;11.70;99.90
14188;DHT22;7175;51.978;5.330;2023-04-01T09:50:33;11.80;99.90
14188;DHT22;7175;51.978;5.330;2023-04-01T09:53:18;11.70;99.90
14188;DHT22;7175;51.978;5.330;2023-04-01T09:56:23;11.80;99.90
14188;DHT22;7175;51.978;5.330;2023-04-01T10:11:22;12.00;99.90
14188;DHT22;7175;51.978;5.330;2023-04-01T10:14:22;12.00;99.90
14188;DHT22;7175;51.978;5.330;2023-04-01T10:20:28;12.00;99.90
14188;DHT22;7175;51.978;5.330;2023-04-01T10:23:26;12.00;99.90
14188;DHT22;7175;51.978;5.330;2023-04-01T10:29:36;12.00;99.90
14188;DHT22;7175;51.978;5.330;2023-04-01T10:35:58;12.10;99.90
14188;DHT22;7175;51.978;5.330;2023-04-01T10:38:55;12.10;99.90
14188;DHT22;7175;51.978;5.330;2023-04-01T10:42:00;12.20;99.90
14188;DHT22;7175;51.978;5.330;2023-04-01T10:48:06;12.30;99.90
14188;DHT22;7175;51.978;5.330;2023-04-01T10:51:04;12.30;99.90
14188;DHT22;7175;51.978;5.330;2023-04-01T10:53:47;12.50;99.90
14188;DHT22;7175;51.978;5.330;2023-04-01T10:56:32;12.70;99.90
14188;DHT22;7175;51.978;5.330;2023-04-01T11:05:53;13.00;99.90
14188;DHT22;7175;51.978;5.330;2023-04-01T11:09:01;13.00;99.90
14188;DHT22;7175;51.978;5.330;2023-04-01T11:12:07;13.10;99.90
14188;DHT22;7175;51.978;5.330;2023-04-01T11:15:21;13.10;99.90
14188;DHT22;7175;51.978;5.330;2023-04-01T11:24:53;13.20;99.90
14188;DHT22;7175;51.978;5.330;2023-04-01T11:27:35;13.10;99.90
14188;DHT22;7175;51.978;5.330;2023-04-01T11:30:20;13.10;99.90
14188;DHT22;7175;51.978;5.330;2023-04-01T11:32:55;13.20;99.90
14188;DHT22;7175;51.978;5.330;2023-04-01T11:35:58;13.30;99.90
14188;DHT22;7175;51.978;5.330;2023-04-01T11:38:45;13.40;99.90
14188;DHT22;7175;51.978;5.330;2023-04-01T11:41:27;13.60;99.90
14188;DHT22;7175;51.978;5.330;2023-04-01T11:44:12;13.70;99.90
14188;DHT22;7175;51.978;5.330;2023-04-01T11:46:54;13.90;99.90
14188;DHT22;7175;51.978;5.330;2023-04-01T11:49:36;13.70;99.90
14188;DHT22;7175;51.978;5.330;2023-04-01T11:52:18;13.60;99.90
14188;DHT22;7175;51.978;5.330;2023-04-01T11:55:04;13.50;99.90
14188;DHT22;7175;51.978;5.330;2023-04-01T11:57:46;13.30;99.90
14188;DHT22;7175;51.978;5.330;2023-04-01T12:00:37;13.10;99.90
14188;DHT22;7175;51.978;5.330;2023-04-01T12:03:21;13.10;99.90
14188;DHT22;7175;51.978;5.330;2023-04-01T12:05:58;13.10;99.90
14188;DHT22;7175;51.978;5.330;2023-04-01T12:08:38;13.30;99.90
14188;DHT22;7175;51.978;5.330;2023-04-01T12:11:14;13.50;99.90
14188;DHT22;7175;51.978;5.330;2023-04-01T12:13:50;13.60;99.90
14188;DHT22;7175;51.978;5.330;2023-04-01T12:16:34;13.70;99.90
14188;DHT22;7175;51.978;5.330;2023-04-01T12:19:15;13.80;99.90
14188;DHT22;7175;51.978;5.330;2023-04-01T12:21:52;13.90;99.90
14188;DHT22;7175;51.978;5.330;2023-04-01T12:27:31;14.00;99.90
14188;DHT22;7175;51.978;5.330;2023-04-01T12:30:21;14.00;99.90
14188;DHT22;7175;51.978;5.330;2023-04-01T12:33:04;14.20;99.90
14188;DHT22;7175;51.978;5.330;2023-04-01T12:35:46;14.10;99.90
14188;DHT22;7175;51.978;5.330;2023-04-01T12:38:30;13.80;99.90
14188;DHT22;7175;51.978;5.330;2023-04-01T12:41:14;13.70;99.90
14188;DHT22;7175;51.978;5.330;2023-04-01T12:44:23;13.70;99.90
14188;DHT22;7175;51.978;5.330;2023-04-01T12:47:16;13.50;99.90
14188;DHT22;7175;51.978;5.330;2023-04-01T12:49:57;13.40;99.90
14188;DHT22;7175;51.978;5.330;2023-04-01T12:52:41;13.40;99.90
14188;DHT22;7175;51.978;5.330;2023-04-01T12:55:31;13.30;99.90
14188;DHT22;7175;51.978;5.330;2023-04-01T13:01:51;13.10;99.90
14188;DHT22;7175;51.978;5.330;2023-04-01T13:05:01;12.90;99.90
14188;DHT22;7175;51.978;5.330;2023-04-01T13:07:56;12.80;99.90
14188;DHT22;7175;51.978;5.330;2023-04-01T13:10:41;12.80;99.90
14188;DHT22;7175;51.978;5.330;2023-04-01T13:13:32;12.70;99.90
14188;DHT22;7175;51.978;5.330;2023-04-01T13:16:08;12.60;99.90
14188;DHT22;7175;51.978;5.330;2023-04-01T13:18:51;12.60;99.90
14188;DHT22;7175;51.978;5.330;2023-04-01T13:21:34;12.70;99.90
14188;DHT22;7175;51.978;5.330;2023-04-01T13:24:14;12.70;99.90
14188;DHT22;7175;51.978;5.330;2023-04-01T13:26:53;12.80;99.90
14188;DHT22;7175;51.978;5.330;2023-04-01T13:29:27;12.90;99.90
14188;DHT22;7175;51.978;5.330;2023-04-01T13:32:14;12.90;99.90
14188;DHT22;7175;51.978;5.330;2023-04-01T13:35:04;12.90;99.90
14188;DHT22;7175;51.978;5.330;2023-04-01T13:37:52;13.00;99.90
14188;DHT22;7175;51.978;5.330;2023-04-01T13:40:35;13.10;99.90
14188;DHT22;7175;51.978;5.330;2023-04-01T13:43:18;13.10;99.90
14188;DHT22;7175;51.978;5.330;2023-04-01T13:46:12;13.20;99.90
14188;DHT22;7175;51.978;5.330;2023-04-01T13:49:02;13.20;99.90
14188;DHT22;7175;51.978;5.330;2023-04-01T13:54:52;13.20;99.90
14188;DHT22;7175;51.978;5.330;2023-04-01T13:57:43;13.10;99.90
14188;DHT22;7175;51.978;5.330;2023-04-01T14:00:35;13.10;99.90
14188;DHT22;7175;51.978;5.330;2023-04-01T14:03:30;13.00;99.90
14188;DHT22;7175;51.978;5.330;2023-04-01T14:06:27;12.90;99.90
14188;DHT22;7175;51.978;5.330;2023-04-01T14:09:30;12.90;99.90
14188;DHT22;7175;51.978;5.330;2023-04-01T14:12:06;12.90;99.90
14188;DHT22;7175;51.978;5.330;2023-04-01T14:14:52;12.80;99.90
14188;DHT22;7175;51.978;5.330;2023-04-01T14:17:31;12.80;99.90
14188;DHT22;7175;51.978;5.330;2023-04-01T14:20:31;12.80;99.90
14188;DHT22;7175;51.978;5.330;2023-04-01T14:26:45;12.70;99.90
14188;DHT22;7175;51.978;5.330;2023-04-01T14:29:25;12.60;99.90
14188;DHT22;7175;51.978;5.330;2023-04-01T14:32:11;12.60;99.90
14188;DHT22;7175;51.978;5.330;2023-04-01T14:34:53;12.60;99.90
14188;DHT22;7175;51.978;5.330;2023-04-01T14:37:55;12.60;99.90
14188;DHT22;7175;51.978;5.330;2023-04-01T14:40:27;12.50;99.90
14188;DHT22;7175;51.978;5.330;2023-04-01T14:43:06;12.50;99.90
14188;DHT22;7175;51.978;5.330;2023-04-01T14:46:17;12.40;99.90
14188;DHT22;7175;51.978;5.330;2023-04-01T14:48:53;12.40;99.90
14188;DHT22;7175;51.978;5.330;2023-04-01T14:51:29;12.30;99.90
14188;DHT22;7175;51.978;5.330;2023-04-01T14:54:04;12.40;99.90
14188;DHT22;7175;51.978;5.330;2023-04-01T14:56:38;12.40;99.90
14188;DHT22;7175;51.978;5.330;2023-04-01T14:59:14;12.30;99.90
14188;DHT22;7175;51.978;5.330;2023-04-01T15:01:50;12.30;99.90
14188;DHT22;7175;51.978;5.330;2023-04-01T15:04:37;12.30;99.90
14188;DHT22;7175;51.978;5.330;2023-04-01T15:07:23;12.30;99.90
14188;DHT22;7175;51.978;5.330;2023-04-01T15:10:04;12.20;99.90
14188;DHT22;7175;51.978;5.330;2023-04-01T15:12:41;12.20;99.90
14188;DHT22;7175;51.978;5.330;2023-04-01T15:15:25;12.10;99.90
14188;DHT22;7175;51.978;5.330;2023-04-01T15:18:08;12.00;99.90
14188;DHT22;7175;51.978;5.330;2023-04-01T15:20:56;12.00;99.90
14188;DHT22;7175;51.978;5.330;2023-04-01T15:23:37;11.90;99.90
14188;DHT22;7175;51.978;5.330;2023-04-01T15:26:46;11.80;99.90
14188;DHT22;7175;51.978;5.330;2023-04-01T15:29:39;11.90;99.90
14188;DHT22;7175;51.978;5.330;2023-04-01T15:32:17;11.80;99.90
14188;DHT22;7175;51.978;5.330;2023-04-01T15:34:56;11.80;99.90
14188;DHT22;7175;51.978;5.330;2023-04-01T15:37:33;11.90;99.90
14188;DHT22;7175;51.978;5.330;2023-04-01T15:40:17;11.90;99.90
14188;DHT22;7175;51.978;5.330;2023-04-01T15:43:00;11.80;99.90
14188;DHT22;7175;51.978;5.330;2023-04-01T15:45:36;11.90;99.90
14188;DHT22;7175;51.978;5.330;2023-04-01T15:48:19;11.90;99.90
14188;DHT22;7175;51.978;5.330;2023-04-01T15:51:10;11.90;99.90
14188;DHT22;7175;51.978;5.330;2023-04-01T15:53:51;11.90;99.90
14188;DHT22;7175;51.978;5.330;2023-04-01T15:56:30;11.90;99.90
14188;DHT22;7175;51.978;5.330;2023-04-01T15:59:18;12.00;99.90
14188;DHT22;7175;51.978;5.330;2023-04-01T16:01:54;11.90;99.90
14188;DHT22;7175;51.978;5.330;2023-04-01T16:04:41;11.90;99.90
14188;DHT22;7175;51.978;5.330;2023-04-01T16:07:23;11.90;99.90
14188;DHT22;7175;51.978;5.330;2023-04-01T16:10:09;11.90;99.90
14188;DHT22;7175;51.978;5.330;2023-04-01T16:12:53;11.90;99.90
14188;DHT22;7175;51.978;5.330;2023-04-01T16:15:32;11.80;99.90
14188;DHT22;7175;51.978;5.330;2023-04-01T16:18:20;11.80;99.90
14188;DHT22;7175;51.978;5.330;2023-04-01T16:20:57;11.80;99.90
14188;DHT22;7175;51.978;5.330;2023-04-01T16:23:33;11.70;99.90
14188;DHT22;7175;51.978;5.330;2023-04-01T16:26:07;11.70;99.90
14188;DHT22;7175;51.978;5.330;2023-04-01T16:28:42;11.80;99.90
14188;DHT22;7175;51.978;5.330;2023-04-01T16:31:28;11.80;99.90
14188;DHT22;7175;51.978;5.330;2023-04-01T16:34:03;11.80;99.90
14188;DHT22;7175;51.978;5.330;2023-04-01T16:36:40;11.70;99.90
14188;DHT22;7175;51.978;5.330;2023-04-01T16:39:27;11.60;99.90
14188;DHT22;7175;51.978;5.330;2023-04-01T16:42:13;11.60;99.90
14188;DHT22;7175;51.978;5.330;2023-04-01T16:44:49;11.60;99.90
14188;DHT22;7175;51.978;5.330;2023-04-01T16:47:21;11.60;99.90
14188;DHT22;7175;51.978;5.330;2023-04-01T16:49:54;11.50;99.90
14188;DHT22;7175;51.978;5.330;2023-04-01T16:52:43;11.50;99.90
14188;DHT22;7175;51.978;5.330;2023-04-01T16:55:19;11.50;99.90
14188;DHT22;7175;51.978;5.330;2023-04-01T16:57:51;11.30;99.90
14188;DHT22;7175;51.978;5.330;2023-04-01T17:00:25;11.30;99.90
14188;DHT22;7175;51.978;5.330;2023-04-01T17:03:04;11.30;99.90
14188;DHT22;7175;51.978;5.330;2023-04-01T17:05:49;11.20;99.90
14188;DHT22;7175;51.978;5.330;2023-04-01T17:08:31;11.10;99.90
14188;DHT22;7175;51.978;5.330;2023-04-01T17:11:11;11.10;99.90
14188;DHT22;7175;51.978;5.330;2023-04-01T17:13:46;11.00;99.90
14188;DHT22;7175;51.978;5.330;2023-04-01T17:16:36;11.00;99.90
14188;DHT22;7175;51.978;5.330;2023-04-01T17:19:14;11.00;99.90
14188;DHT22;7175;51.978;5.330;2023-04-01T17:21:55;11.00;99.90
14188;DHT22;7175;51.978;5.330;2023-04-01T17:24:40;10.90;99.90
14188;DHT22;7175;51.978;5.330;2023-04-01T17:27:23;10.80;99.90
14188;DHT22;7175;51.978;5.330;2023-04-01T17:30:22;10.90;99.90
14188;DHT22;7175;51.978;5.330;2023-04-01T17:33:06;10.90;99.90
14188;DHT22;7175;51.978;5.330;2023-04-01T17:35:41;10.90;99.90
14188;DHT22;7175;51.978;5.330;2023-04-01T17:38:17;10.80;99.90
14188;DHT22;7175;51.978;5.330;2023-04-01T17:40:55;10.80;99.90
14188;DHT22;7175;51.978;5.330;2023-04-01T17:43:33;10.80;99.90
14188;DHT22;7175;51.978;5.330;2023-04-01T17:46:19;10.80;99.90
14188;DHT22;7175;51.978;5.330;2023-04-01T17:48:58;10.70;99.90
14188;DHT22;7175;51.978;5.330;2023-04-01T17:51:35;10.60;99.90
14188;DHT22;7175;51.978;5.330;2023-04-01T17:54:16;10.60;99.90
14188;DHT22;7175;51.978;5.330;2023-04-01T17:56:57;10.50;99.90
14188;DHT22;7175;51.978;5.330;2023-04-01T17:59:36;10.50;99.90
14188;DHT22;7175;51.978;5.330;2023-04-01T18:02:16;10.50;99.90
14188;DHT22;7175;51.978;5.330;2023-04-01T18:05:00;10.50;99.90
14188;DHT22;7175;51.978;5.330;2023-04-01T18:07:50;10.50;99.90
14188;DHT22;7175;51.978;5.330;2023-04-01T18:10:28;10.40;99.90